createdAt,value
2023-02-13T00:00:56.378Z,102611.91
2023-02-13T00:03:00.156Z,102614.53
2023-02-13T00:05:03.700Z,102617.16
2023-02-13T00:07:07.238Z,102611.81
2023-02-13T00:09:11.364Z,102616.19
2023-02-13T00:11:14.979Z,102617.06
2023-02-13T00:13:18.557Z,102616.25
2023-02-13T00:15:23.590Z,102621.56
2023-02-13T00:17:26.592Z,102621.63
2023-02-13T00:19:30.318Z,102622.53
2023-02-13T00:21:33.957Z,102625.09
2023-02-13T00:23:38.654Z,102625.94
2023-02-13T00:25:42.041Z,102625.06
2023-02-13T00:27:45.535Z,102626.84
2023-02-13T00:29:49.351Z,102619.91
2023-02-13T00:31:54.598Z,102623.56
2023-02-13T00:33:58.872Z,102622.78
2023-02-13T00:36:05.819Z,102613.22
2023-02-13T00:38:09.325Z,102627.28
2023-02-13T00:40:13.882Z,102623.75
2023-02-13T00:42:17.484Z,102627.28
2023-02-13T00:44:21.984Z,102617.56
2023-02-13T00:46:25.638Z,102616.66
2023-02-13T00:48:32.908Z,102620.13
2023-02-13T00:50:36.580Z,102615.81
2023-02-13T00:52:39.973Z,102609.81
2023-02-13T00:54:43.583Z,102603.69
2023-02-13T00:56:46.813Z,102611.63
2023-02-13T00:58:51.064Z,102602.16
2023-02-13T01:00:56.350Z,102601.47
2023-02-13T01:03:00.879Z,102603.38
2023-02-13T01:05:05.902Z,102605.19
2023-02-13T01:07:09.150Z,102610.41
2023-02-13T01:09:12.805Z,102616.38
2023-02-13T01:11:17.004Z,102609.19
2023-02-13T01:13:20.598Z,102607.28
2023-02-13T01:15:24.435Z,102608.94
2023-02-13T01:17:27.912Z,102610.69
2023-02-13T01:19:32.842Z,102609.81
2023-02-13T01:21:37.589Z,102608.84
2023-02-13T01:23:41.051Z,102610.63
2023-02-13T01:25:44.504Z,102601.84
2023-02-13T01:27:47.756Z,102583.53
2023-02-13T01:29:53.153Z,102591.50
2023-02-13T01:31:56.478Z,102594.94
2023-02-13T01:34:03.718Z,102600.22
2023-02-13T01:36:09.277Z,102596.66
2023-02-13T01:38:15.779Z,102601.94
2023-02-13T01:40:19.356Z,102610.75
2023-02-13T01:42:26.173Z,102602.84
2023-02-13T01:44:48.523Z,102587.88
2023-02-13T01:46:52.743Z,102593.97
2023-02-13T01:49:00.561Z,102585.94
2023-02-13T01:51:09.784Z,102582.44
2023-02-13T01:53:19.728Z,102578.91
2023-02-13T01:55:23.739Z,102583.25
2023-02-13T01:57:29.818Z,102584.09
2023-02-13T01:59:41.563Z,102589.38
2023-02-13T02:01:46.341Z,102577.06
2023-02-13T02:03:54.325Z,102581.53
2023-02-13T02:05:59.341Z,102579.06
2023-02-13T02:08:06.293Z,102577.38
2023-02-13T02:10:18.392Z,102576.50
2023-02-13T02:12:30.563Z,102575.59
2023-02-13T02:14:33.957Z,102577.25
2023-02-13T02:16:37.328Z,102568.44
2023-02-13T02:18:41.149Z,102561.34
2023-02-13T02:21:15.658Z,102571.00
2023-02-13T02:23:49.816Z,102566.53
2023-02-13T02:26:31.610Z,102561.25
2023-02-13T02:29:08.709Z,102562.13
2023-02-13T02:31:46.549Z,102562.16
2023-02-13T02:34:04.345Z,102563.19
2023-02-13T02:36:31.137Z,102562.44
2023-02-13T02:38:52.086Z,102565.16
2023-02-13T02:41:03.157Z,102560.00
2023-02-13T02:43:25.545Z,102558.34
2023-02-13T02:45:36.434Z,102561.94
2023-02-13T02:48:08.636Z,102557.63
2023-02-13T02:50:25.047Z,102553.38
2023-02-13T02:52:40.821Z,102548.22
2023-02-13T02:55:08.877Z,102545.66
2023-02-13T02:57:26.238Z,102547.47
2023-02-13T02:59:55.910Z,102544.91
2023-02-13T03:02:17.839Z,102553.94
2023-02-13T03:04:45.519Z,102541.97
2023-02-13T03:06:53.118Z,102543.72
2023-02-13T03:09:17.905Z,102533.22
2023-02-13T03:11:46.891Z,102538.44
2023-02-13T03:13:51.239Z,102528.75
2023-02-13T03:16:17.923Z,102536.59
2023-02-13T03:18:37.733Z,102521.72
2023-02-13T03:21:05.519Z,102521.56
2023-02-13T03:23:15.592Z,102524.97
2023-02-13T03:25:30.448Z,102525.88
2023-02-13T03:28:00.180Z,102519.69
2023-02-13T03:30:08.865Z,102519.66
2023-02-13T03:32:19.700Z,102521.50
2023-02-13T03:34:47.089Z,102525.88
2023-02-13T03:37:18.257Z,102521.53
2023-02-13T03:39:25.159Z,102519.97
2023-02-13T03:41:31.914Z,102530.78
2023-02-13T03:43:51.254Z,102524.63
2023-02-13T03:45:53.645Z,102529.88
2023-02-13T03:48:09.718Z,102529.84
2023-02-13T03:50:15.198Z,102525.41
2023-02-13T03:52:26.108Z,102530.63
2023-02-13T03:54:53.875Z,102527.16
2023-02-13T03:57:14.782Z,102524.59
2023-02-13T03:59:23.666Z,102514.16
2023-02-13T04:01:31.580Z,102510.69
2023-02-13T04:03:41.869Z,102510.75
2023-02-13T04:05:49.741Z,102511.63
2023-02-13T04:07:54.459Z,102507.31
2023-02-13T04:10:00.008Z,102500.34
2023-02-13T04:12:11.932Z,102501.28
2023-02-13T04:14:20.368Z,102506.59
2023-02-13T04:16:31.297Z,102506.53
2023-02-13T04:18:36.296Z,102503.94
2023-02-13T04:20:40.771Z,102503.22
2023-02-13T04:22:44.948Z,102496.41
2023-02-13T04:24:49.907Z,102504.31
2023-02-13T04:26:55.107Z,102497.38
2023-02-13T04:28:58.092Z,102497.38
2023-02-13T04:31:01.915Z,102491.97
2023-02-13T04:33:05.635Z,102495.41
2023-02-13T04:35:09.496Z,102495.38
2023-02-13T04:37:12.717Z,102503.19
2023-02-13T04:39:16.071Z,102495.34
2023-02-13T04:41:20.726Z,102498.84
2023-02-13T04:43:25.413Z,102504.13
2023-02-13T04:45:28.710Z,102497.34
2023-02-13T04:47:32.094Z,102495.63
2023-02-13T04:49:35.414Z,102493.94
2023-02-13T04:51:39.041Z,102488.09
2023-02-13T04:53:42.318Z,102496.88
2023-02-13T04:55:45.601Z,102495.13
2023-02-13T04:57:50.358Z,102486.34
2023-02-13T04:59:53.590Z,102502.88
2023-02-13T05:01:56.808Z,102501.06
2023-02-13T05:04:00.152Z,102508.00
2023-02-13T05:06:03.434Z,102506.19
2023-02-13T05:08:07.456Z,102504.44
2023-02-13T05:10:12.192Z,102510.53
2023-02-13T05:12:15.428Z,102509.59
2023-02-13T05:14:20.500Z,102510.31
2023-02-13T05:16:23.842Z,102505.69
2023-02-13T05:18:27.067Z,102509.81
2023-02-13T05:20:30.385Z,102507.84
2023-02-13T05:22:50.791Z,102504.28
2023-02-13T05:24:54.025Z,102493.63
2023-02-13T05:26:57.361Z,102506.66
2023-02-13T05:29:18.318Z,102512.66
2023-02-13T05:31:23.076Z,102502.84
2023-02-13T05:33:26.653Z,102498.38
2023-02-13T05:35:29.987Z,102493.03
2023-02-13T05:37:33.255Z,102487.78
2023-02-13T05:39:36.559Z,102487.75
2023-02-13T05:41:39.775Z,102486.84
2023-02-13T05:43:43.033Z,102485.03
2023-02-13T05:45:46.323Z,102484.13
2023-02-13T05:47:51.032Z,102480.59
2023-02-13T05:49:54.249Z,102478.78
2023-02-13T05:51:57.624Z,102480.47
2023-02-13T05:54:00.874Z,102474.25
2023-02-13T05:56:05.324Z,102471.66
2023-02-13T05:58:09.645Z,102477.75
2023-02-13T06:00:13.945Z,102477.66
2023-02-13T06:02:17.186Z,102485.59
2023-02-13T06:04:21.797Z,102478.66
2023-02-13T06:06:25.580Z,102476.19
2023-02-13T06:08:29.392Z,102467.53
2023-02-13T06:10:32.771Z,102460.59
2023-02-13T06:12:36.048Z,102458.88
2023-02-13T06:14:39.253Z,102453.66
2023-02-13T06:16:42.866Z,102453.72
2023-02-13T06:18:46.057Z,102458.09
2023-02-13T06:20:51.511Z,102448.50
2023-02-13T06:22:55.239Z,102448.56
2023-02-13T06:24:58.720Z,102453.84
2023-02-13T06:27:01.935Z,102461.75
2023-02-13T06:29:06.774Z,102461.75
2023-02-13T06:31:10.182Z,102460.94
2023-02-13T06:33:13.501Z,102456.56
2023-02-13T06:35:17.688Z,102457.41
2023-02-13T06:37:22.261Z,102456.53
2023-02-13T06:39:25.462Z,102442.50
2023-02-13T06:41:28.704Z,102439.97
2023-02-13T06:43:32.141Z,102437.38
2023-02-13T06:45:35.447Z,102440.09
2023-02-13T06:47:42.718Z,102437.44
2023-02-13T06:49:46.111Z,102445.34
2023-02-13T06:51:49.468Z,102448.88
2023-02-13T06:53:54.140Z,102445.44
2023-02-13T06:55:58.035Z,102454.25
2023-02-13T06:58:01.296Z,102449.16
2023-02-13T07:00:06.025Z,102450.13
2023-02-13T07:02:11.708Z,102452.88
2023-02-13T07:04:15.170Z,102452.91
2023-02-13T07:06:19.390Z,102451.31
2023-02-13T07:08:22.621Z,102457.50
2023-02-13T07:10:27.487Z,102450.53
2023-02-13T07:12:30.872Z,102452.28
2023-02-13T07:14:34.129Z,102446.97
2023-02-13T07:16:37.471Z,102459.97
2023-02-13T07:18:40.689Z,102457.22
2023-02-13T07:20:43.934Z,102457.16
2023-02-13T07:22:47.321Z,102451.88
2023-02-13T07:24:50.546Z,102463.22
2023-02-13T07:26:55.279Z,102453.56
2023-02-13T07:29:10.502Z,102458.75
2023-02-13T07:31:14.757Z,102461.34
2023-02-13T07:33:18.411Z,102460.47
2023-02-13T07:35:21.669Z,102450.84
2023-02-13T07:37:24.989Z,102450.00
2023-02-13T07:39:28.402Z,102454.53
2023-02-13T07:41:31.706Z,102454.69
2023-02-13T07:43:36.363Z,102460.91
2023-02-13T07:45:40.030Z,102449.50
2023-02-13T07:47:43.258Z,102458.28
2023-02-13T07:49:46.514Z,102459.97
2023-02-13T07:51:49.805Z,102459.09
2023-02-13T07:53:53.309Z,102455.69
2023-02-13T07:55:56.856Z,102466.28
2023-02-13T07:58:02.175Z,102468.84
2023-02-13T08:00:08.352Z,102474.06
2023-02-13T08:02:15.860Z,102476.56
2023-02-13T08:04:19.394Z,102479.97
2023-02-13T08:06:23.396Z,102485.16
2023-02-13T08:08:26.732Z,102480.72
2023-02-13T08:10:47.396Z,102485.06
2023-02-13T08:12:50.860Z,102488.50
2023-02-13T08:14:58.457Z,102484.22
2023-02-13T08:17:03.250Z,102486.06
2023-02-13T08:19:06.478Z,102487.81
2023-02-13T08:21:09.803Z,102479.94
2023-02-13T08:23:13.424Z,102484.38
2023-02-13T08:25:17.280Z,102491.41
2023-02-13T08:27:20.777Z,102492.19
2023-02-13T08:29:24.206Z,102492.16
2023-02-13T08:31:27.964Z,102501.00
2023-02-13T08:33:33.072Z,102493.00
2023-02-13T08:35:36.469Z,102502.56
2023-02-13T08:37:39.670Z,102500.69
2023-02-13T08:39:42.985Z,102497.88
2023-02-13T08:41:47.049Z,102506.50
2023-02-13T08:43:50.321Z,102493.13
2023-02-13T08:45:53.713Z,102495.63
2023-02-13T08:47:58.664Z,102510.38
2023-02-13T08:50:03.361Z,102498.78
2023-02-13T08:52:06.969Z,102495.06
2023-02-13T08:54:10.185Z,102501.84
2023-02-13T08:56:13.623Z,102496.34
2023-02-13T08:58:16.870Z,102502.31
2023-02-13T09:00:21.025Z,102491.59
2023-02-13T09:02:24.510Z,102499.31
2023-02-13T09:04:28.137Z,102505.28
2023-02-13T09:06:33.057Z,102509.47
2023-02-13T09:08:37.253Z,102508.31
2023-02-13T09:10:41.121Z,102510.78
2023-02-13T09:12:44.431Z,102500.13
2023-02-13T09:14:49.204Z,102516.66
2023-02-13T09:16:52.446Z,102509.31
2023-02-13T09:18:55.750Z,102508.84
2023-02-13T09:21:00.998Z,102511.94
2023-02-13T09:23:05.667Z,102506.41
2023-02-13T09:25:09.518Z,102501.03
2023-02-13T09:27:12.810Z,102505.31
2023-02-13T09:29:16.182Z,102499.94
2023-02-13T09:31:24.185Z,102508.69
2023-02-13T09:33:28.017Z,102492.06
2023-02-13T09:35:31.290Z,102501.00
2023-02-13T09:37:34.515Z,102496.59
2023-02-13T09:39:39.228Z,102496.47
2023-02-13T09:41:45.610Z,102484.00
2023-02-13T09:43:52.235Z,102482.56
2023-02-13T09:46:00.109Z,102479.47
2023-02-13T09:48:03.860Z,102482.59
2023-02-13T09:50:13.442Z,102480.41
2023-02-13T09:52:16.923Z,102485.06
2023-02-13T09:54:20.276Z,102477.44
2023-02-13T09:56:37.723Z,102477.09
2023-02-13T09:58:43.309Z,102489.28
2023-02-13T10:00:50.925Z,102485.28
2023-02-13T10:03:27.201Z,102489.88
2023-02-13T10:05:49.146Z,102487.63
2023-02-13T10:08:01.516Z,102502.38
2023-02-13T10:10:18.253Z,102497.56
2023-02-13T10:12:34.992Z,102494.44
2023-02-13T10:14:47.038Z,102494.25
2023-02-13T10:16:54.883Z,102491.44
2023-02-13T10:19:06.799Z,102486.78
2023-02-13T10:21:11.507Z,102473.19
2023-02-13T10:23:22.854Z,102482.38
2023-02-13T10:25:29.414Z,102484.44
2023-02-13T10:27:36.981Z,102486.31
2023-02-13T10:30:02.612Z,102483.47
2023-02-13T10:32:11.932Z,102490.63
2023-02-13T10:34:18.520Z,102481.88
2023-02-13T10:36:26.804Z,102489.88
2023-02-13T10:38:32.603Z,102486.19
2023-02-13T10:40:41.402Z,102490.41
2023-02-13T10:42:47.756Z,102490.81
2023-02-13T10:45:21.825Z,102488.81
2023-02-13T10:47:41.536Z,102491.28
2023-02-13T10:49:56.607Z,102487.50
2023-02-13T10:52:11.386Z,102479.13
2023-02-13T10:54:30.761Z,102484.28
2023-02-13T10:56:40.227Z,102489.56
2023-02-13T10:58:56.020Z,102487.03
2023-02-13T11:01:08.148Z,102475.56
2023-02-13T11:03:20.239Z,102474.63
2023-02-13T11:05:26.791Z,102467.31
2023-02-13T11:07:31.909Z,102469.44
2023-02-13T11:09:41.174Z,102464.81
2023-02-13T11:11:44.877Z,102469.13
2023-02-13T11:14:09.963Z,102468.13
2023-02-13T11:16:14.108Z,102465.22
2023-02-13T11:18:22.202Z,102464.78
2023-02-13T11:20:33.556Z,102460.66
2023-02-13T11:22:39.763Z,102460.84
2023-02-13T11:24:52.465Z,102456.66
2023-02-13T11:27:01.290Z,102443.75
2023-02-13T11:29:19.489Z,102455.31
2023-02-13T11:31:29.605Z,102444.88
2023-02-13T11:33:32.997Z,102441.47
2023-02-13T11:35:38.203Z,102435.41
2023-02-13T11:37:41.440Z,102436.44
2023-02-13T11:39:46.560Z,102429.44
2023-02-13T11:41:51.857Z,102426.84
2023-02-13T11:44:01.373Z,102423.34
2023-02-13T11:46:08.923Z,102428.56
2023-02-13T11:48:22.436Z,102422.44
2023-02-13T11:50:28.685Z,102408.22
2023-02-13T11:52:35.088Z,102411.28
2023-02-13T11:54:42.039Z,102413.63
2023-02-13T11:57:08.327Z,102415.09
2023-02-13T11:59:15.385Z,102405.97
2023-02-13T12:01:29.816Z,102404.66
2023-02-13T12:03:33.750Z,102418.41
2023-02-13T12:05:38.095Z,102411.91
2023-02-13T12:07:42.274Z,102408.97
2023-02-13T12:09:49.148Z,102401.69
2023-02-13T12:11:54.724Z,102391.06
2023-02-13T12:13:58.874Z,102390.91
2023-02-13T12:16:05.299Z,102381.94
2023-02-13T12:18:17.757Z,102387.97
2023-02-13T12:20:21.278Z,102379.00
2023-02-13T12:22:34.650Z,102381.50
2023-02-13T12:24:55.447Z,102365.38
2023-02-13T12:27:07.457Z,102375.88
2023-02-13T12:29:29.616Z,102370.59
2023-02-13T12:31:55.541Z,102364.41
2023-02-13T12:34:31.882Z,102362.84
2023-02-13T12:36:48.442Z,102371.63
2023-02-13T12:39:08.214Z,102379.50
2023-02-13T12:41:23.952Z,102375.81
2023-02-13T12:43:53.539Z,102373.91
2023-02-13T12:46:05.758Z,102367.66
2023-02-13T12:48:21.292Z,102364.91
2023-02-13T12:50:55.331Z,102368.16
2023-02-13T12:53:14.270Z,102360.06
2023-02-13T12:55:37.641Z,102361.56
2023-02-13T12:57:56.897Z,102367.56
2023-02-13T13:00:18.551Z,102355.09
2023-02-13T13:03:00.596Z,102358.56
2023-02-13T13:05:12.667Z,102347.91
2023-02-13T13:07:51.115Z,102352.22
2023-02-13T13:10:17.174Z,102352.34
2023-02-13T13:12:38.646Z,102348.13
2023-02-13T13:14:51.030Z,102344.75
2023-02-13T13:17:02.048Z,102343.94
2023-02-13T13:19:13.293Z,102341.34
2023-02-13T13:21:21.442Z,102337.66
2023-02-13T13:23:31.334Z,102335.88
2023-02-13T13:25:40.944Z,102332.28
2023-02-13T13:27:47.045Z,102330.53
2023-02-13T13:29:56.666Z,102328.84
2023-02-13T13:32:04.678Z,102327.06
2023-02-13T13:34:14.932Z,102316.59
2023-02-13T13:36:29.079Z,102328.03
2023-02-13T13:38:44.147Z,102318.41
2023-02-13T13:40:55.364Z,102315.84
2023-02-13T13:43:01.507Z,102316.78
2023-02-13T13:45:22.522Z,102310.59
2023-02-13T13:47:39.092Z,102309.63
2023-02-13T13:49:52.094Z,102314.72
2023-02-13T13:52:10.134Z,102314.56
2023-02-13T13:54:36.716Z,102309.03
2023-02-13T13:57:14.326Z,102315.25
2023-02-13T13:59:19.133Z,102312.69
2023-02-13T14:01:29.355Z,102304.75
2023-02-13T14:03:37.506Z,102314.50
2023-02-13T14:05:59.987Z,102310.19
2023-02-13T14:08:04.858Z,102304.03
2023-02-13T14:10:21.636Z,102300.56
2023-02-13T14:12:39.572Z,102300.50
2023-02-13T14:14:46.754Z,102292.69
2023-02-13T14:16:50.415Z,102286.59
2023-02-13T14:18:53.731Z,102281.34
2023-02-13T14:21:00.089Z,102276.03
2023-02-13T14:23:29.294Z,102274.28
2023-02-13T14:25:32.843Z,102286.63
2023-02-13T14:27:39.909Z,102281.34
2023-02-13T14:29:49.594Z,102273.38
2023-02-13T14:32:06.538Z,102279.50
2023-02-13T14:34:20.413Z,102272.41
2023-02-13T14:36:32.265Z,102266.19
2023-02-13T14:38:36.853Z,102258.13
2023-02-13T14:40:49.522Z,102267.88
2023-02-13T14:42:57.793Z,102271.38
2023-02-13T14:45:03.572Z,102266.00
2023-02-13T14:47:21.060Z,102261.53
2023-02-13T14:49:28.421Z,102265.97
2023-02-13T14:51:37.260Z,102262.44
2023-02-13T14:53:51.552Z,102261.59
2023-02-13T14:56:03.668Z,102259.94
2023-02-13T14:58:14.846Z,102258.25
2023-02-13T15:00:23.485Z,102261.03
2023-02-13T15:02:29.257Z,102260.28
2023-02-13T15:04:40.704Z,102249.88
2023-02-13T15:06:47.417Z,102254.34
2023-02-13T15:08:54.286Z,102258.94
2023-02-13T15:10:59.334Z,102258.03
2023-02-13T15:13:06.520Z,102252.75
2023-02-13T15:15:25.913Z,102252.75
2023-02-13T15:17:32.991Z,102251.78
2023-02-13T15:19:40.598Z,102250.91
2023-02-13T15:21:50.614Z,102240.41
2023-02-13T15:23:56.854Z,102245.84
2023-02-13T15:26:02.510Z,102241.59
2023-02-13T15:28:08.768Z,102249.66
2023-02-13T15:30:24.376Z,102247.13
2023-02-13T15:32:33.146Z,102235.72
2023-02-13T15:34:40.909Z,102239.41
2023-02-13T15:36:47.206Z,102246.66
2023-02-13T15:38:51.530Z,102238.97
2023-02-13T15:40:59.402Z,102237.34
2023-02-13T15:45:45.642Z,102231.25
2023-02-13T15:48:09.305Z,102231.22
2023-02-13T15:50:19.893Z,102230.22
2023-02-13T15:52:28.342Z,102234.59
2023-02-13T15:54:33.394Z,102238.06
2023-02-13T15:56:38.927Z,102237.13
2023-02-13T15:58:42.374Z,102237.13
2023-02-13T16:00:47.369Z,102233.56
2023-02-13T16:02:52.061Z,102229.00
2023-02-13T16:04:57.198Z,102232.50
2023-02-13T16:07:02.023Z,102230.75
2023-02-13T16:09:07.250Z,102228.19
2023-02-13T16:11:19.755Z,102238.06
2023-02-13T16:13:22.983Z,102232.91
2023-02-13T16:15:30.528Z,102233.09
2023-02-13T16:17:38.443Z,102231.63
2023-02-13T16:19:53.465Z,102229.13
2023-02-13T16:21:58.762Z,102229.31
2023-02-13T16:24:05.826Z,102223.31
2023-02-13T16:26:15.718Z,102225.19
2023-02-13T16:28:22.473Z,102216.63
2023-02-13T16:30:35.604Z,102219.44
2023-02-13T16:32:41.869Z,102227.53
2023-02-13T16:34:45.111Z,102225.94
2023-02-13T16:36:48.407Z,102226.91
2023-02-13T16:38:52.259Z,102227.09
2023-02-13T16:40:57.204Z,102225.47
2023-02-13T16:43:33.810Z,102228.28
2023-02-13T16:45:37.383Z,102231.00
2023-02-13T16:47:42.114Z,102232.94
2023-02-13T16:49:56.071Z,102237.38
2023-02-13T16:52:02.289Z,102234.00
2023-02-13T16:54:15.464Z,102229.78
2023-02-13T16:56:18.789Z,102229.97
2023-02-13T16:58:28.629Z,102228.34
2023-02-13T17:00:32.292Z,102225.84
2023-02-13T17:02:37.227Z,102227.66
2023-02-13T17:04:43.268Z,102229.50
2023-02-13T17:06:46.580Z,102228.75
2023-02-13T17:08:49.815Z,102228.78
2023-02-13T17:11:03.982Z,102228.03
2023-02-13T17:13:17.680Z,102223.69
2023-02-13T17:15:22.728Z,102225.59
2023-02-13T17:17:28.719Z,102228.28
2023-02-13T17:19:32.046Z,102224.81
2023-02-13T17:21:36.922Z,102218.78
2023-02-13T17:23:40.403Z,102224.16
2023-02-13T17:25:43.804Z,102219.09
2023-02-13T17:27:47.155Z,102221.84
2023-02-13T17:29:50.392Z,102222.06
2023-02-13T17:31:57.631Z,102237.06
2023-02-13T17:34:00.974Z,102237.28
2023-02-13T17:36:04.480Z,102236.44
2023-02-13T17:38:10.820Z,102241.81
2023-02-13T17:40:18.359Z,102243.63
2023-02-13T17:42:24.866Z,102239.28
2023-02-13T17:44:28.144Z,102243.75
2023-02-13T17:46:31.498Z,102249.94
2023-02-13T17:48:35.107Z,102254.44
2023-02-13T17:50:39.359Z,102262.41
2023-02-13T17:52:43.376Z,102258.13
2023-02-13T17:54:49.079Z,102267.91
2023-02-13T17:56:52.514Z,102262.81
2023-02-13T17:58:55.725Z,102265.69
2023-02-13T18:00:59.318Z,102266.69
2023-02-13T18:03:03.271Z,102269.34
2023-02-13T18:05:17.709Z,102264.13
2023-02-13T18:07:22.425Z,102259.72
2023-02-13T18:09:25.815Z,102264.94
2023-02-13T18:11:30.445Z,102261.34
2023-02-13T18:13:33.704Z,102267.47
2023-02-13T18:15:39.942Z,102253.47
2023-02-13T18:17:43.967Z,102254.44
2023-02-13T18:19:47.736Z,102253.66
2023-02-13T18:21:51.045Z,102246.66
2023-02-13T18:23:54.600Z,102246.69
2023-02-13T18:26:05.814Z,102244.94
2023-02-13T18:28:10.168Z,102241.53
2023-02-13T18:30:15.706Z,102245.97
2023-02-13T18:32:19.074Z,102246.91
2023-02-13T18:34:23.617Z,102241.75
2023-02-13T18:36:26.801Z,102241.00
2023-02-13T18:38:30.639Z,102235.81
2023-02-13T18:40:33.808Z,102235.84
2023-02-13T18:42:37.184Z,102241.16
2023-02-13T18:44:42.275Z,102240.34
2023-02-13T18:46:46.150Z,102245.63
2023-02-13T18:48:49.364Z,102235.94
2023-02-13T18:50:52.884Z,102234.13
2023-02-13T18:52:56.176Z,102236.66
2023-02-13T18:54:59.451Z,102239.31
2023-02-13T18:57:02.648Z,102233.19
2023-02-13T18:59:06.091Z,102239.44
2023-02-13T19:01:14.144Z,102235.94
2023-02-13T19:03:18.336Z,102231.53
2023-02-13T19:05:22.741Z,102235.16
2023-02-13T19:07:26.032Z,102243.13
2023-02-13T19:09:29.427Z,102244.03
2023-02-13T19:11:34.409Z,102244.97
2023-02-13T19:13:38.071Z,102252.88
2023-02-13T19:15:41.417Z,102243.19
2023-02-13T19:17:46.425Z,102254.63
2023-02-13T19:19:50.520Z,102258.16
2023-02-13T19:21:53.748Z,102254.63
2023-02-13T19:23:57.053Z,102242.31
2023-02-13T19:26:00.585Z,102250.25
2023-02-13T19:28:03.858Z,102245.00
2023-02-13T19:30:09.616Z,102256.41
2023-02-13T19:32:13.097Z,102254.66
2023-02-13T19:34:17.891Z,102252.03
2023-02-13T19:36:23.202Z,102251.13
2023-02-13T19:38:26.683Z,102245.88
2023-02-13T19:40:29.945Z,102252.00
2023-02-13T19:42:33.266Z,102252.00
2023-02-13T19:44:36.479Z,102254.66
2023-02-13T19:46:40.169Z,102256.56
2023-02-13T19:48:43.822Z,102253.16
2023-02-13T19:50:48.473Z,102252.31
2023-02-13T19:52:53.446Z,102252.47
2023-02-13T19:54:56.727Z,102256.13
2023-02-13T19:57:01.630Z,102255.31
2023-02-13T19:59:05.086Z,102256.31
2023-02-13T20:01:09.555Z,102255.56
2023-02-13T20:03:12.837Z,102260.88
2023-02-13T20:05:16.266Z,102252.97
2023-02-13T20:07:20.854Z,102259.13
2023-02-13T20:09:24.185Z,102267.06
2023-02-13T20:11:27.780Z,102264.53
2023-02-13T20:13:32.103Z,102263.72
2023-02-13T20:15:35.467Z,102257.69
2023-02-13T20:17:39.399Z,102260.41
2023-02-13T20:19:42.607Z,102254.44
2023-02-13T20:21:46.065Z,102253.63
2023-02-13T20:23:52.405Z,102249.41
2023-02-13T20:25:55.605Z,102239.94
2023-02-13T20:27:58.980Z,102249.66
2023-02-13T20:30:07.818Z,102245.34
2023-02-13T20:32:11.520Z,102251.50
2023-02-13T20:34:14.872Z,102240.97
2023-02-13T20:36:20.246Z,102234.84
2023-02-13T20:38:24.179Z,102241.88
2023-02-13T20:40:28.942Z,102233.13
2023-02-13T20:42:33.963Z,102230.59
2023-02-13T20:44:37.235Z,102235.97
2023-02-13T20:46:41.601Z,102231.63
2023-02-13T20:48:46.681Z,102232.50
2023-02-13T20:50:59.519Z,102220.22
2023-02-13T20:53:03.524Z,102222.03
2023-02-13T20:55:11.468Z,102207.19
2023-02-13T20:57:16.971Z,102196.53
2023-02-13T20:59:35.211Z,102202.53
2023-02-13T21:01:41.699Z,102194.47
2023-02-13T21:03:48.006Z,102184.63
2023-02-13T21:05:51.970Z,102194.88
2023-02-13T21:07:55.244Z,102192.91
2023-02-13T21:09:58.481Z,102190.94
2023-02-13T21:12:01.760Z,102177.69
2023-02-13T21:14:07.168Z,102188.94
2023-02-13T21:16:14.428Z,102188.88
2023-02-13T21:18:19.795Z,102183.69
2023-02-13T21:20:25.158Z,102196.88
2023-02-13T21:22:28.396Z,102190.75
2023-02-13T21:24:31.646Z,102191.59
2023-02-13T21:26:35.306Z,102188.03
2023-02-13T21:28:39.266Z,102186.16
2023-02-13T21:30:44.351Z,102189.63
2023-02-13T21:32:47.604Z,102188.63
2023-02-13T21:34:50.973Z,102173.63
2023-02-13T21:36:54.231Z,102169.25
2023-02-13T21:38:58.094Z,102167.56
2023-02-13T21:41:06.298Z,102159.69
2023-02-13T21:43:09.676Z,102160.56
2023-02-13T21:45:13.529Z,102149.97
2023-02-13T21:47:18.613Z,102137.63
2023-02-13T21:49:21.911Z,102149.88
2023-02-13T21:51:26.790Z,102140.16
2023-02-13T21:53:32.511Z,102131.38
2023-02-13T21:55:35.924Z,102123.47
2023-02-13T21:57:40.303Z,102110.28
2023-02-13T21:59:43.714Z,102098.84
2023-02-13T22:01:50.234Z,102097.13
2023-02-13T22:03:56.416Z,102102.44
2023-02-13T22:06:01.205Z,102113.03
2023-02-13T22:08:13.916Z,102106.91
2023-02-13T22:10:17.359Z,102122.75
2023-02-13T22:12:20.706Z,102131.53
2023-02-13T22:14:24.020Z,102138.56
2023-02-13T22:16:27.429Z,102143.84
2023-02-13T22:18:33.887Z,102141.22
2023-02-13T22:20:39.032Z,102138.63
2023-02-13T22:22:42.039Z,102143.94
2023-02-13T22:24:45.303Z,102136.09
2023-02-13T22:26:48.791Z,102139.56
2023-02-13T22:28:52.938Z,102140.47
2023-02-13T22:30:56.400Z,102139.56
2023-02-13T22:32:59.775Z,102133.34
2023-02-13T22:35:03.100Z,102134.19
2023-02-13T22:37:08.552Z,102148.28
2023-02-13T22:39:12.834Z,102149.19
2023-02-13T22:41:17.734Z,102145.69
2023-02-13T22:43:21.044Z,102142.25
2023-02-13T22:45:24.297Z,102135.28
2023-02-13T22:47:28.822Z,102147.81
2023-02-13T22:49:33.094Z,102151.47
2023-02-13T22:51:37.960Z,102180.50
2023-02-13T22:53:42.750Z,102156.78
2023-02-13T22:55:46.050Z,102149.56
2023-02-13T22:57:53.999Z,102152.88
2023-02-13T22:59:57.257Z,102141.28
2023-02-13T23:02:00.571Z,102125.34
2023-02-13T23:04:03.989Z,102111.13
2023-02-13T23:06:09.212Z,102133.03
2023-02-13T23:08:12.802Z,102111.81
2023-02-13T23:10:19.045Z,102102.88
2023-02-13T23:12:36.622Z,102134.44
2023-02-13T23:14:39.877Z,102127.38
2023-02-13T23:17:01.347Z,102131.88
2023-02-13T23:19:04.684Z,102142.44
2023-02-13T23:21:09.592Z,102133.66
2023-02-13T23:23:13.096Z,102161.81
2023-02-13T23:25:18.463Z,102156.59
2023-02-13T23:27:21.831Z,102165.47
2023-02-13T23:29:25.418Z,102169.00
2023-02-13T23:31:28.937Z,102170.84
2023-02-13T23:33:32.343Z,102139.94
2023-02-13T23:35:35.620Z,102103.81
2023-02-13T23:37:39.078Z,102112.50
2023-02-13T23:39:42.325Z,102108.94
2023-02-13T23:41:47.000Z,102103.78
2023-02-13T23:43:50.258Z,102106.44
2023-02-13T23:45:53.547Z,102116.16
2023-02-13T23:47:56.928Z,102117.91
2023-02-13T23:50:00.167Z,102139.88
2023-02-13T23:52:03.358Z,102154.84
2023-02-13T23:54:06.710Z,102153.09
2023-02-13T23:56:10.035Z,102154.84
2023-02-13T23:58:15.689Z,102161.00
